Time;durP1;ratioP1;P1;durP2;ratioP2;P2;SDS_P1;SDS_P2;PMS_P1;PMS_P2;Temp;Humidity;BMP_temperature;BMP_pressure;BME280_temperature;BME280_humidity;BME280_pressure;Samples;Min_cycle;Max_cycle;Signal;HPM_P1;HPM_P2
2023/12/07 00:00:15;;;;;;;25.33;17.30;;;7.40;89.60;;;;;;4993578;28;20488;-76
2023/12/07 00:02:41;;;;;;;25.33;17.90;;;7.50;90.10;;;;;;4993656;28;20034;-77
2023/12/07 00:05:07;;;;;;;25.23;17.40;;;7.50;90.00;;;;;;4993876;28;20034;-75
2023/12/07 00:07:33;;;;;;;24.42;17.42;;;7.50;90.20;;;;;;4993322;28;20038;-76
2023/12/07 00:09:58;;;;;;;25.95;17.95;;;7.50;89.90;;;;;;4991820;28;20133;-76
2023/12/07 00:12:24;;;;;;;29.90;17.88;;;7.40;89.80;;;;;;4992267;28;20054;-77
2023/12/07 00:14:50;;;;;;;25.42;17.63;;;7.30;90.10;;;;;;4993182;28;20030;-76
2023/12/07 00:17:15;;;;;;;25.95;17.52;;;7.40;90.00;;;;;;4993292;28;20038;-75
2023/12/07 00:19:41;;;;;;;26.50;18.35;;;7.30;90.00;;;;;;4993352;28;20061;-76
2023/12/07 00:22:07;;;;;;;26.85;18.08;;;7.20;90.00;;;;;;4993047;28;20038;-76
2023/12/07 00:24:33;;;;;;;25.40;18.02;;;7.10;90.10;;;;;;4992808;28;20042;-75
2023/12/07 00:26:58;;;;;;;26.00;17.02;;;7.10;90.30;;;;;;4993036;28;20388;-73
2023/12/07 00:29:24;;;;;;;25.48;18.15;;;7.00;90.40;;;;;;4991743;28;20144;-75
2023/12/07 00:31:51;;;;;;;26.00;17.50;;;7.00;90.50;;;;;;4993116;28;20092;-76
2023/12/07 00:34:17;;;;;;;26.00;17.27;;;7.00;90.40;;;;;;4993299;28;20046;-75
2023/12/07 00:36:43;;;;;;;24.25;16.88;;;7.00;90.30;;;;;;4992615;28;20544;-75
2023/12/07 00:39:09;;;;;;;26.40;17.80;;;6.90;90.30;;;;;;4993113;28;20448;-75
2023/12/07 00:41:35;;;;;;;26.05;17.92;;;6.90;90.40;;;;;;4993505;28;20118;-77
2023/12/07 00:44:00;;;;;;;25.88;18.00;;;6.90;90.30;;;;;;4994033;28;20035;-76
2023/12/07 00:46:26;;;;;;;26.05;17.20;;;6.80;90.30;;;;;;4993198;28;20041;-76
2023/12/07 00:48:51;;;;;;;24.73;17.98;;;6.90;90.40;;;;;;4992373;28;20469;-77
2023/12/07 00:51:17;;;;;;;23.30;17.65;;;6.80;90.30;;;;;;4993094;28;20034;-76
2023/12/07 00:53:43;;;;;;;25.80;18.45;;;6.70;90.40;;;;;;4993039;28;20042;-77
2023/12/07 00:56:09;;;;;;;25.27;18.33;;;6.70;90.50;;;;;;4992801;28;20477;-76
2023/12/07 00:58:35;;;;;;;24.40;17.10;;;6.50;90.30;;;;;;4992841;28;20042;-74
2023/12/07 01:01:01;;;;;;;23.63;17.52;;;6.50;90.70;;;;;;4992755;28;20030;-75
2023/12/07 01:03:27;;;;;;;25.25;18.05;;;6.50;90.60;;;;;;4992809;28;20034;-76
2023/12/07 01:05:52;;;;;;;26.70;18.08;;;6.40;90.60;;;;;;4992572;28;20038;-76
2023/12/07 01:08:18;;;;;;;27.05;17.17;;;6.40;90.50;;;;;;4992782;28;20031;-76
2023/12/07 01:10:44;;;;;;;24.88;16.38;;;6.30;90.50;;;;;;4992483;28;20046;-77
2023/12/07 01:13:09;;;;;;;23.83;17.23;;;6.30;90.50;;;;;;4992465;28;20415;-76
2023/12/07 01:15:35;;;;;;;24.15;17.33;;;6.30;90.60;;;;;;4992653;28;20037;-75
2023/12/07 01:18:01;;;;;;;22.67;17.10;;;6.30;90.60;;;;;;4992890;28;20042;-76
2023/12/07 01:20:27;;;;;;;22.77;16.65;;;6.30;90.60;;;;;;4992453;28;20552;-76
2023/12/07 01:22:53;;;;;;;24.08;17.75;;;6.30;90.80;;;;;;4991512;28;20054;-75
2023/12/07 01:25:21;;;;;;;32.20;21.30;;;6.20;90.60;;;;;;4992765;28;20484;-76
2023/12/07 01:27:48;;;;;;;23.20;17.23;;;6.30;90.70;;;;;;4993033;28;20031;-76
2023/12/07 01:30:14;;;;;;;22.83;17.25;;;6.30;90.80;;;;;;4992769;28;20117;-77
2023/12/07 01:32:40;;;;;;;23.50;17.80;;;6.30;90.70;;;;;;4995021;28;20623;-76
2023/12/07 01:35:06;;;;;;;27.23;18.77;;;6.30;90.70;;;;;;4993975;28;20121;-75
2023/12/07 01:37:32;;;;;;;31.92;21.13;;;6.20;90.50;;;;;;4993495;28;20057;-75
2023/12/07 01:39:57;;;;;;;23.58;16.95;;;6.20;90.70;;;;;;4992920;28;20117;-77
2023/12/07 01:42:23;;;;;;;23.30;16.77;;;6.20;90.70;;;;;;4993262;28;20034;-74
2023/12/07 01:44:49;;;;;;;28.85;21.15;;;6.20;90.70;;;;;;4993581;28;20048;-76
2023/12/07 01:47:15;;;;;;;25.73;17.52;;;6.20;90.60;;;;;;4993558;28;20038;-75
2023/12/07 01:49:41;;;;;;;24.58;17.65;;;6.20;90.70;;;;;;4996345;28;20053;-77
2023/12/07 01:52:10;;;;;;;28.33;20.55;;;6.20;90.70;;;;;;4996069;28;20113;-76
2023/12/07 01:54:35;;;;;;;23.40;16.58;;;6.20;90.80;;;;;;4995904;28;20050;-76
2023/12/07 01:57:02;;;;;;;30.83;21.23;;;6.20;90.70;;;;;;4996009;28;20035;-76
2023/12/07 01:59:28;;;;;;;24.88;17.40;;;6.20;90.60;;;;;;4994337;28;20057;-76
2023/12/07 02:01:53;;;;;;;24.23;16.90;;;6.20;90.60;;;;;;4995831;28;20479;-78
2023/12/07 02:04:19;;;;;;;26.85;17.92;;;6.20;90.70;;;;;;4995802;28;20109;-76
2023/12/07 02:06:45;;;;;;;25.95;18.58;;;6.20;90.70;;;;;;4995729;28;20341;-76
2023/12/07 02:09:11;;;;;;;28.85;20.20;;;6.30;90.80;;;;;;4994033;28;20049;-76
2023/12/07 02:11:37;;;;;;;26.08;17.95;;;6.30;90.80;;;;;;4995262;28;20047;-75
2023/12/07 02:14:02;;;;;;;26.52;17.52;;;6.30;90.60;;;;;;4995428;28;20133;-76
2023/12/07 02:16:40;;;;;;;31.80;21.40;;;6.30;90.80;;;;;;4995534;28;20073;-76
2023/12/07 02:19:18;;;;;;;25.88;17.88;;;6.30;90.80;;;;;;4995591;28;20030;-77
2023/12/07 02:22:27;;;;;;;25.05;17.58;;;6.20;89.90;;;;;;4995018;28;20066;-75
2023/12/07 02:25:04;;;;;;;29.52;20.23;;;6.20;91.20;;;;;;4994690;28;20058;-75
2023/12/07 02:27:34;;;;;;;26.10;17.83;;;6.20;90.00;;;;;;4993733;28;20038;-76
2023/12/07 02:30:00;;;;;;;31.00;20.35;;;6.20;90.80;;;;;;4995170;28;20113;-75
2023/12/07 02:32:26;;;;;;;26.92;16.75;;;6.20;90.80;;;;;;4995111;28;20495;-76
2023/12/07 02:34:52;;;;;;;30.30;20.27;;;6.20;90.80;;;;;;4993892;28;20088;-76
2023/12/07 02:37:19;;;;;;;24.10;16.88;;;6.20;90.80;;;;;;5010429;28;20426;-75
2023/12/07 02:39:45;;;;;;;30.17;21.20;;;6.20;90.90;;;;;;4995049;28;20125;-76
2023/12/07 02:42:13;;;;;;;27.75;16.83;;;6.30;90.80;;;;;;4993778;28;20026;-74
2023/12/07 02:44:39;;;;;;;26.08;17.55;;;6.20;90.90;;;;;;4994878;28;20039;-76
2023/12/07 02:47:05;;;;;;;22.42;16.48;;;6.20;90.90;;;;;;4995019;28;20038;-74
2023/12/07 02:49:31;;;;;;;29.45;19.88;;;6.20;91.20;;;;;;4994794;28;20065;-75
2023/12/07 02:51:57;;;;;;;25.42;17.25;;;6.30;91.00;;;;;;4994870;28;20479;-75
2023/12/07 02:54:22;;;;;;;24.95;16.83;;;6.20;91.00;;;;;;4994924;28;20049;-77
2023/12/07 02:56:48;;;;;;;23.05;16.90;;;6.30;90.90;;;;;;4994997;28;20436;-77
2023/12/07 02:59:14;;;;;;;26.48;17.27;;;6.30;91.00;;;;;;4994231;28;20381;-76
2023/12/07 03:01:40;;;;;;;31.13;20.35;;;6.30;91.00;;;;;;4994717;28;20034;-76
2023/12/07 03:04:05;;;;;;;24.23;17.92;;;6.20;91.00;;;;;;5009750;28;20469;-76
2023/12/07 03:06:31;;;;;;;30.38;19.15;;;6.20;91.00;;;;;;4994377;28;20400;-76
2023/12/07 03:08:57;;;;;;;22.40;16.25;;;6.30;91.00;;;;;;4994473;28;20038;-75
2023/12/07 03:11:23;;;;;;;24.77;17.13;;;6.20;90.90;;;;;;4993106;28;20039;-76
2023/12/07 03:13:49;;;;;;;33.20;20.42;;;6.20;91.00;;;;;;4994510;28;20477;-76
2023/12/07 03:16:15;;;;;;;22.98;17.23;;;6.20;91.00;;;;;;4994468;28;20058;-74
2023/12/07 03:18:40;;;;;;;31.55;20.17;;;6.10;91.10;;;;;;4994425;28;20106;-76
2023/12/07 03:21:07;;;;;;;25.10;17.98;;;6.10;90.90;;;;;;4994357;28;20108;-76
2023/12/07 03:23:32;;;;;;;31.80;19.08;;;6.20;91.00;;;;;;4994573;28;20045;-76
2023/12/07 03:25:58;;;;;;;24.83;17.15;;;6.10;90.80;;;;;;4981270;28;20031;-75
2023/12/07 03:28:24;;;;;;;30.33;19.58;;;6.10;91.00;;;;;;4973322;28;20501;-77
2023/12/07 03:30:49;;;;;;;30.38;20.23;;;6.10;90.90;;;;;;4975255;28;20031;-75
2023/12/07 03:33:15;;;;;;;24.15;16.02;;;6.20;91.00;;;;;;4976080;28;20043;-75
2023/12/07 03:35:41;;;;;;;30.13;19.67;;;6.20;91.00;;;;;;4975079;28;20105;-76
2023/12/07 03:38:07;;;;;;;23.48;16.23;;;6.10;91.00;;;;;;4973525;28;20424;-76
2023/12/07 03:40:33;;;;;;;24.33;15.95;;;6.10;91.00;;;;;;4974252;28;20030;-76
2023/12/07 03:42:59;;;;;;;25.15;17.33;;;6.10;91.00;;;;;;4974508;28;20035;-76
2023/12/07 03:45:24;;;;;;;30.45;19.70;;;6.00;90.90;;;;;;4974624;28;20445;-76
2023/12/07 03:47:50;;;;;;;23.73;15.93;;;6.00;90.90;;;;;;4974535;28;20027;-76
2023/12/07 03:50:16;;;;;;;27.55;18.67;;;6.00;90.80;;;;;;4974461;28;20429;-75
2023/12/07 03:52:42;;;;;;;29.73;19.90;;;6.00;90.90;;;;;;4974296;28;20039;-76
2023/12/07 03:55:08;;;;;;;25.08;16.90;;;6.00;90.90;;;;;;4974488;28;20062;-76
2023/12/07 03:57:34;;;;;;;29.73;19.00;;;6.00;90.80;;;;;;4972980;28;20039;-75
2023/12/07 03:59:59;;;;;;;24.55;16.52;;;6.00;90.90;;;;;;4974077;28;20042;-75
2023/12/07 04:02:25;;;;;;;22.15;15.73;;;6.00;90.90;;;;;;4974055;28;20035;-76
2023/12/07 04:04:51;;;;;;;29.58;18.67;;;6.10;91.00;;;;;;4974263;28;20043;-75
2023/12/07 04:07:17;;;;;;;24.15;15.85;;;6.00;90.90;;;;;;4974396;28;20109;-75
2023/12/07 04:09:43;;;;;;;29.75;19.38;;;6.10;90.90;;;;;;4974177;28;20039;-77
2023/12/07 04:12:08;;;;;;;25.58;16.55;;;6.00;90.90;;;;;;4973111;28;20047;-75
2023/12/07 04:14:34;;;;;;;29.45;18.83;;;5.90;90.80;;;;;;4974068;28;20053;-76
2023/12/07 04:17:00;;;;;;;24.48;16.45;;;5.90;90.90;;;;;;4972945;28;20035;-76
2023/12/07 04:19:26;;;;;;;27.98;17.83;;;5.90;90.90;;;;;;4974066;28;20039;-77
2023/12/07 04:21:51;;;;;;;22.15;15.95;;;5.90;90.90;;;;;;4974156;28;20041;-76
2023/12/07 04:24:17;;;;;;;23.45;15.00;;;5.90;90.90;;;;;;4973990;28;20035;-76
2023/12/07 04:26:43;;;;;;;28.10;18.48;;;5.90;91.00;;;;;;4972312;28;20038;-76
2023/12/07 04:29:09;;;;;;;22.67;15.52;;;5.90;91.10;;;;;;4973667;28;20111;-76
2023/12/07 04:31:36;;;;;;;25.02;17.40;;;5.90;90.90;;;;;;4972215;28;20034;-76
2023/12/07 04:34:01;;;;;;;18.90;13.60;;;5.90;91.00;;;;;;4973830;28;20445;-75
2023/12/07 04:36:27;;;;;;;21.13;15.20;;;5.90;90.90;;;;;;4973807;28;20039;-76
2023/12/07 04:38:53;;;;;;;27.52;17.42;;;5.90;90.90;;;;;;4973431;28;20035;-76
2023/12/07 04:41:18;;;;;;;29.02;16.75;;;5.90;91.00;;;;;;4973609;28;20043;-76
2023/12/07 04:43:44;;;;;;;25.60;16.52;;;5.80;90.90;;;;;;4973711;28;20075;-76
2023/12/07 04:46:10;;;;;;;20.20;14.50;;;5.70;90.80;;;;;;4973757;28;20061;-76
2023/12/07 04:48:35;;;;;;;27.27;16.48;;;5.70;90.90;;;;;;4973774;28;20477;-77
2023/12/07 04:51:01;;;;;;;25.17;16.92;;;5.70;90.90;;;;;;4973765;28;20031;-76
2023/12/07 04:53:27;;;;;;;23.23;16.13;;;5.60;90.80;;;;;;4973486;28;20133;-76
2023/12/07 04:55:52;;;;;;;21.42;14.27;;;5.60;90.90;;;;;;4973428;28;20113;-76
2023/12/07 04:58:18;;;;;;;24.30;16.17;;;5.60;90.80;;;;;;4973972;28;20508;-78
2023/12/07 05:00:44;;;;;;;25.45;17.25;;;5.50;90.80;;;;;;4981162;28;20467;-77
2023/12/07 05:03:10;;;;;;;25.75;16.67;;;5.60;90.70;;;;;;4981134;28;20129;-76
2023/12/07 05:05:36;;;;;;;24.75;16.10;;;5.60;90.70;;;;;;4981014;28;20107;-76
2023/12/07 05:08:02;;;;;;;23.50;15.32;;;5.60;90.70;;;;;;4973705;28;20043;-76
2023/12/07 05:10:27;;;;;;;20.75;14.63;;;5.60;90.70;;;;;;4973469;28;20035;-75
2023/12/07 05:12:53;;;;;;;24.67;15.57;;;5.50;90.60;;;;;;4973237;28;20102;-76
2023/12/07 05:15:19;;;;;;;21.80;15.32;;;5.50;90.50;;;;;;4972174;28;20409;-76
2023/12/07 05:17:44;;;;;;;22.08;14.75;;;5.40;90.50;;;;;;4973563;28;20117;-78
2023/12/07 05:20:12;;;;;;;22.90;15.20;;;5.40;90.60;;;;;;4973698;28;20035;-76
2023/12/07 05:22:38;;;;;;;23.73;16.38;;;5.30;90.50;;;;;;4975661;28;20107;-76
2023/12/07 05:25:04;;;;;;;20.08;14.15;;;5.30;90.50;;;;;;4977386;28;20022;-75
2023/12/07 05:27:30;;;;;;;23.17;15.13;;;5.30;90.50;;;;;;4977544;28;20069;-76
2023/12/07 05:29:56;;;;;;;24.45;15.27;;;5.30;90.60;;;;;;4977190;28;20070;-74
2023/12/07 05:32:22;;;;;;;24.92;14.48;;;5.30;90.50;;;;;;4977213;28;20489;-75
2023/12/07 05:34:47;;;;;;;23.67;15.60;;;5.30;90.50;;;;;;4976995;28;20047;-75
2023/12/07 05:37:13;;;;;;;25.42;15.82;;;5.20;90.50;;;;;;4976998;28;20107;-77
2023/12/07 05:39:39;;;;;;;20.38;14.30;;;5.20;90.50;;;;;;4976808;28;20070;-76
2023/12/07 05:42:05;;;;;;;24.70;14.55;;;5.20;90.50;;;;;;4976802;28;20035;-76
2023/12/07 05:44:31;;;;;;;25.27;15.90;;;5.20;90.50;;;;;;4976826;28;20039;-73
2023/12/07 05:46:57;;;;;;;24.33;15.00;;;5.20;90.50;;;;;;4976937;28;20039;-76
2023/12/07 05:49:23;;;;;;;23.23;15.32;;;5.20;90.70;;;;;;4976950;28;20476;-75
2023/12/07 05:51:49;;;;;;;29.13;15.50;;;5.20;90.50;;;;;;4976613;28;20035;-77
2023/12/07 05:54:15;;;;;;;21.48;15.02;;;5.20;90.60;;;;;;4976554;28;20125;-78
2023/12/07 05:56:41;;;;;;;29.20;15.82;;;5.20;90.60;;;;;;4978046;28;20114;-75
2023/12/07 05:59:07;;;;;;;33.78;15.75;;;5.20;90.70;;;;;;4977413;28;20077;-76
2023/12/07 06:01:32;;;;;;;25.55;15.00;;;5.20;90.60;;;;;;4976270;28;20445;-76
2023/12/07 06:03:59;;;;;;;27.38;15.70;;;5.30;90.70;;;;;;4976155;28;20073;-75
2023/12/07 06:06:24;;;;;;;32.25;16.13;;;5.30;90.60;;;;;;4976463;28;20511;-76
2023/12/07 06:08:51;;;;;;;24.00;13.85;;;5.30;90.70;;;;;;4976177;28;20031;-77
2023/12/07 06:11:16;;;;;;;26.65;15.93;;;5.30;90.70;;;;;;4976240;28;20052;-77
2023/12/07 06:13:42;;;;;;;27.00;14.27;;;5.40;90.70;;;;;;4976310;28;20047;-77
2023/12/07 06:16:13;;;;;;;18.58;12.18;;;5.30;90.70;;;;;;4974473;28;20035;-77
2023/12/07 06:18:38;;;;;;;24.30;15.20;;;5.30;90.80;;;;;;4976091;28;20389;-75
2023/12/07 06:21:04;;;;;;;26.83;15.32;;;5.30;90.80;;;;;;4976061;28;20105;-77
2023/12/07 06:23:30;;;;;;;22.98;14.25;;;5.30;90.70;;;;;;4975767;28;20515;-75
2023/12/07 06:25:56;;;;;;;24.35;13.85;;;5.30;90.70;;;;;;4975656;28;20379;-77
2023/12/07 06:28:21;;;;;;;18.05;11.55;;;5.30;90.70;;;;;;4975917;28;20085;-76
2023/12/07 06:30:47;;;;;;;22.80;14.20;;;5.30;90.60;;;;;;4976052;28;20039;-78
2023/12/07 06:33:13;;;;;;;21.20;13.68;;;5.30;90.60;;;;;;4975900;28;20059;-77
2023/12/07 06:35:38;;;;;;;23.55;14.30;;;5.30;90.70;;;;;;4975671;28;20111;-77
2023/12/07 06:38:04;;;;;;;24.50;15.27;;;5.30;90.60;;;;;;4976046;28;20047;-78
2023/12/07 06:40:31;;;;;;;16.55;11.48;;;5.40;90.60;;;;;;4975883;28;20085;-76
2023/12/07 06:42:57;;;;;;;21.75;14.35;;;5.40;90.60;;;;;;4975970;28;20128;-77
2023/12/07 06:45:22;;;;;;;24.98;14.45;;;5.40;90.50;;;;;;4976104;28;20034;-80
2023/12/07 06:47:48;;;;;;;20.65;12.13;;;5.40;90.50;;;;;;4980743;28;20100;-77
2023/12/07 06:50:14;;;;;;;22.45;14.55;;;5.70;90.70;;;;;;4981290;28;20043;-78
2023/12/07 06:52:40;;;;;;;19.00;12.00;;;6.10;90.60;;;;;;4975728;28;20085;-73
2023/12/07 06:55:06;;;;;;;28.23;14.57;;;6.50;90.50;;;;;;4976277;28;20035;-79
2023/12/07 06:57:33;;;;;;;18.58;11.60;;;6.80;90.20;;;;;;4976536;28;20031;-78
2023/12/07 06:59:58;;;;;;;17.00;11.73;;;7.20;89.90;;;;;;4987747;28;20046;-78
2023/12/07 07:02:24;;;;;;;16.73;11.77;;;7.60;89.40;;;;;;4978952;28;20489;-81
2023/12/07 07:04:50;;;;;;;20.55;11.52;;;7.90;88.60;;;;;;4987716;28;20031;-80
2023/12/07 07:07:16;;;;;;;18.92;11.68;;;8.30;88.00;;;;;;4988933;28;20555;-81
2023/12/07 07:09:42;;;;;;;19.00;12.27;;;8.70;87.90;;;;;;4994140;28;20030;-79
2023/12/07 07:12:08;;;;;;;15.90;10.98;;;8.90;87.20;;;;;;4992965;28;20404;-81
2023/12/07 07:14:34;;;;;;;16.75;11.18;;;9.20;87.00;;;;;;4984155;28;20043;-80
2023/12/07 07:17:00;;;;;;;19.83;11.80;;;9.40;86.50;;;;;;4983816;28;20373;-81
2023/12/07 07:19:25;;;;;;;19.08;11.88;;;9.70;86.00;;;;;;4984910;28;20125;-81
2023/12/07 07:21:51;;;;;;;18.77;11.27;;;10.10;84.70;;;;;;4993479;28;20445;-79
2023/12/07 07:24:17;;;;;;;18.73;11.80;;;10.40;84.00;;;;;;4994581;28;20121;-80
2023/12/07 07:26:43;;;;;;;20.58;11.93;;;10.50;83.30;;;;;;4994374;28;20507;-80
2023/12/07 07:29:08;;;;;;;21.45;11.43;;;10.00;83.10;;;;;;4992151;28;20038;-80
2023/12/07 07:31:35;;;;;;;17.33;11.93;;;9.20;85.20;;;;;;4993060;28;20538;-78
2023/12/07 07:34:01;;;;;;;18.20;12.38;;;8.60;86.20;;;;;;4994657;28;20447;-80
2023/12/07 07:36:26;;;;;;;22.65;11.80;;;8.10;86.90;;;;;;4994647;28;20034;-81
2023/12/07 07:38:52;;;;;;;21.95;12.57;;;7.70;87.30;;;;;;4990716;28;20506;-82
2023/12/07 07:41:18;;;;;;;17.15;12.20;;;7.50;87.90;;;;;;4981946;28;20027;-80
2023/12/07 07:43:44;;;;;;;18.13;12.10;;;7.30;88.20;;;;;;4974797;28;20110;-81
2023/12/07 07:46:10;;;;;;;21.67;12.38;;;7.30;88.50;;;;;;4973356;28;20039;-80
2023/12/07 07:48:37;;;;;;;21.88;12.23;;;7.20;88.50;;;;;;4974594;28;20507;-81
2023/12/07 07:51:03;;;;;;;24.88;12.48;;;7.20;88.50;;;;;;4974304;28;20045;-78
2023/12/07 07:53:29;;;;;;;24.85;13.27;;;7.10;88.70;;;;;;4974278;28;20047;-81
2023/12/07 07:55:55;;;;;;;22.90;13.05;;;7.10;88.70;;;;;;4975191;28;20035;-81
2023/12/07 07:58:21;;;;;;;29.60;14.77;;;7.10;88.90;;;;;;4974643;28;20054;-76
2023/12/07 08:00:46;;;;;;;19.67;12.48;;;7.10;88.80;;;;;;4979126;28;20452;-81
2023/12/07 08:03:13;;;;;;;23.38;12.90;;;7.10;88.90;;;;;;4986094;28;20449;-81
2023/12/07 08:05:38;;;;;;;27.00;13.60;;;7.10;89.00;;;;;;4992644;28;20039;-80
2023/12/07 08:08:04;;;;;;;20.73;13.18;;;7.10;88.90;;;;;;5004063;28;20225;-85
2023/12/07 08:10:30;;;;;;;24.98;13.55;;;7.10;89.00;;;;;;5012848;28;20030;-87
2023/12/07 08:12:55;;;;;;;24.67;13.35;;;7.10;89.00;;;;;;5001115;28;20555;-87
2023/12/07 08:15:21;;;;;;;23.20;13.15;;;7.10;89.00;;;;;;4996780;28;20062;-87
2023/12/07 08:17:47;;;;;;;22.25;13.48;;;7.10;89.00;;;;;;4996783;28;20057;-86
2023/12/07 08:20:14;;;;;;;23.75;13.13;;;7.10;89.20;;;;;;4998163;28;20499;-85
2023/12/07 08:22:40;;;;;;;22.05;12.82;;;7.20;89.30;;;;;;5001926;28;20042;-88
2023/12/07 08:25:09;;;;;;;25.27;13.80;;;7.20;89.30;;;;;;5001081;28;20105;-88
2023/12/07 08:27:36;;;;;;;25.05;14.00;;;7.30;89.30;;;;;;5003522;28;20034;-80
2023/12/07 08:30:04;;;;;;;21.55;13.68;;;7.30;89.00;;;;;;5000113;28;20349;-86
2023/12/07 08:32:30;;;;;;;30.27;13.45;;;7.30;89.40;;;;;;4993576;28;20476;-80
2023/12/07 08:34:56;;;;;;;22.38;12.63;;;7.40;89.30;;;;;;4993331;28;20069;-80
2023/12/07 08:37:22;;;;;;;19.08;13.65;;;7.50;89.20;;;;;;4993855;28;20101;-86
2023/12/07 08:39:48;;;;;;;21.83;13.85;;;7.60;89.30;;;;;;4995731;28;20069;-83
2023/12/07 08:42:14;;;;;;;20.50;13.32;;;7.60;89.30;;;;;;4994842;28;20101;-83
2023/12/07 08:44:40;;;;;;;21.27;13.00;;;7.70;89.10;;;;;;4999542;28;20141;-79
2023/12/07 08:47:06;;;;;;;23.40;14.20;;;7.80;89.00;;;;;;5000854;28;20035;-81
2023/12/07 08:49:32;;;;;;;21.67;13.95;;;7.90;89.00;;;;;;4995845;28;20026;-83
2023/12/07 08:51:58;;;;;;;21.08;13.63;;;7.90;89.00;;;;;;4995105;28;20034;-83
2023/12/07 08:54:24;;;;;;;19.92;13.70;;;8.00;89.10;;;;;;4994056;28;20432;-81
2023/12/07 08:56:50;;;;;;;20.75;12.57;;;8.00;89.10;;;;;;4993705;28;20102;-83
2023/12/07 08:59:16;;;;;;;18.15;12.90;;;8.00;89.10;;;;;;4994126;28;20042;-82
2023/12/07 09:01:42;;;;;;;20.02;13.40;;;8.10;89.00;;;;;;4994812;28;20034;-83
2023/12/07 09:04:08;;;;;;;19.20;13.02;;;8.10;89.00;;;;;;4993918;28;20532;-82
2023/12/07 09:06:34;;;;;;;25.73;12.85;;;8.10;88.90;;;;;;4995092;28;20092;-83
2023/12/07 09:08:59;;;;;;;21.52;12.50;;;8.20;88.80;;;;;;4996850;28;20030;-83
2023/12/07 09:11:25;;;;;;;19.25;13.15;;;8.20;89.00;;;;;;5001078;28;20061;-83
2023/12/07 09:13:51;;;;;;;19.50;11.88;;;8.20;89.10;;;;;;4994351;28;20073;-83
2023/12/07 09:16:17;;;;;;;18.95;13.00;;;8.30;88.90;;;;;;4996711;28;20420;-83
2023/12/07 09:18:45;;;;;;;21.08;13.07;;;8.30;89.00;;;;;;4994248;28;20035;-84
2023/12/07 09:21:10;;;;;;;19.17;13.25;;;8.40;88.90;;;;;;4992968;28;20381;-82
2023/12/07 09:23:37;;;;;;;16.83;12.65;;;8.50;89.00;;;;;;4993881;28;20046;-80
2023/12/07 09:26:03;;;;;;;20.85;12.48;;;8.60;88.90;;;;;;4995247;28;20113;-87
2023/12/07 09:28:29;;;;;;;19.00;13.07;;;8.60;88.50;;;;;;4994821;28;20102;-85
2023/12/07 09:30:55;;;;;;;21.63;13.70;;;8.70;88.60;;;;;;4994708;28;20082;-89
2023/12/07 09:33:20;;;;;;;19.13;13.65;;;8.80;88.60;;;;;;4993644;28;20052;-81
2023/12/07 09:35:47;;;;;;;19.98;13.07;;;8.80;88.30;;;;;;4993846;28;20034;-75
2023/12/07 09:38:12;;;;;;;21.27;12.55;;;8.90;88.20;;;;;;4993812;28;20030;-79
2023/12/07 09:40:38;;;;;;;16.70;11.98;;;8.90;88.00;;;;;;4993901;28;20041;-81
2023/12/07 09:43:04;;;;;;;16.67;12.13;;;9.00;88.00;;;;;;4995566;28;20068;-81
2023/12/07 09:45:30;;;;;;;17.63;12.85;;;9.10;87.90;;;;;;4994117;28;20030;-80
2023/12/07 09:47:55;;;;;;;17.35;12.63;;;9.10;87.50;;;;;;4993752;28;20426;-87
2023/12/07 09:50:24;;;;;;;18.20;12.05;;;9.20;87.40;;;;;;4996386;28;20039;-84
2023/12/07 09:52:56;;;;;;;17.95;12.05;;;9.30;87.30;;;;;;5001852;28;20148;-85
2023/12/07 09:55:22;;;;;;;19.48;12.25;;;9.30;87.30;;;;;;4994031;28;20057;-87
2023/12/07 09:57:49;;;;;;;18.65;11.43;;;9.50;87.50;;;;;;4997491;28;20022;-85
2023/12/07 10:00:16;;;;;;;16.92;11.95;;;9.60;87.20;;;;;;5000870;28;20056;-86
2023/12/07 10:02:42;;;;;;;17.10;11.38;;;9.60;87.40;;;;;;4999001;28;20035;-86
2023/12/07 10:05:10;;;;;;;15.27;11.02;;;9.80;86.80;;;;;;4994810;28;20408;-87
2023/12/07 10:07:39;;;;;;;16.35;11.32;;;9.80;86.50;;;;;;4997400;28;20035;-84
2023/12/07 10:10:06;;;;;;;16.38;9.88;;;9.80;86.40;;;;;;4999499;28;20034;-86
2023/12/07 10:12:36;;;;;;;16.30;10.30;;;9.90;86.50;;;;;;4999115;28;20489;-84
2023/12/07 10:15:15;;;;;;;13.82;9.98;;;9.90;85.80;;;;;;4998395;28;20046;-87
2023/12/07 10:17:48;;;;;;;18.70;10.90;;;10.00;86.10;;;;;;4999018;28;20034;-88
2023/12/07 10:20:23;;;;;;;15.25;10.35;;;10.10;85.10;;;;;;5003130;28;20073;-87
2023/12/07 10:23:04;;;;;;;17.70;10.45;;;10.20;84.90;;;;;;5002627;28;20030;-81
2023/12/07 10:25:42;;;;;;;15.18;9.95;;;10.20;84.50;;;;;;4997711;28;20046;-83
2023/12/07 10:28:12;;;;;;;17.33;11.07;;;10.40;85.10;;;;;;4998134;28;20039;-84
2023/12/07 10:30:41;;;;;;;17.67;10.63;;;10.50;84.20;;;;;;4997834;28;20089;-83
2023/12/07 10:33:08;;;;;;;14.93;9.75;;;10.50;83.70;;;;;;4997228;28;20499;-87
2023/12/07 10:35:41;;;;;;;14.00;9.30;;;10.60;83.10;;;;;;4998038;28;20058;-86
2023/12/07 10:38:08;;;;;;;;;;;10.60;83.20;;;;;;4996723;28;20037;-83
2023/12/07 10:40:34;;;;;;;15.00;9.85;;;10.60;82.40;;;;;;4996512;28;19906;-86
2023/12/07 10:43:07;;;;;;;13.55;9.43;;;10.60;82.50;;;;;;4997886;28;20053;-85
2023/12/07 10:45:34;;;;;;;12.85;8.38;;;10.70;82.90;;;;;;4996369;28;20121;-88
2023/12/07 10:48:07;;;;;;;15.48;8.63;;;10.80;82.80;;;;;;4998632;28;20065;-86
2023/12/07 10:50:53;;;;;;;12.68;8.57;;;10.90;83.30;;;;;;4998961;28;20034;-81
2023/12/07 10:53:29;;;;;;;14.05;9.60;;;11.00;82.30;;;;;;4996240;28;20129;-82
2023/12/07 10:56:00;;;;;;;12.63;9.13;;;11.10;82.40;;;;;;5011935;28;20313;-74
2023/12/07 10:58:26;;;;;;;17.95;9.68;;;11.20;81.70;;;;;;5014819;28;20037;-82
2023/12/07 11:00:57;;;;;;;15.85;8.98;;;11.20;81.90;;;;;;4998434;28;20563;-89
2023/12/07 11:03:24;;;;;;;12.05;8.63;;;11.30;81.00;;;;;;4998009;28;20061;-82
2023/12/07 11:05:51;;;;;;;16.17;8.25;;;11.30;81.70;;;;;;4997510;28;20034;-80
2023/12/07 11:08:36;;;;;;;12.35;8.82;;;11.40;81.40;;;;;;4996614;28;20089;-80
2023/12/07 11:11:20;;;;;;;15.05;8.98;;;11.50;80.30;;;;;;5000921;28;20030;-87
2023/12/07 11:14:07;;;;;;;15.57;10.50;;;11.60;80.80;;;;;;5000951;28;20046;-85
2023/12/07 11:16:36;;;;;;;18.00;9.80;;;11.70;79.80;;;;;;5001157;28;20035;-88
2023/12/07 11:19:04;;;;;;;15.05;9.90;;;11.70;79.30;;;;;;4999895;28;20034;-87
2023/12/07 11:21:31;;;;;;;15.75;9.50;;;11.80;80.50;;;;;;4996717;28;20026;-88
2023/12/07 11:24:03;;;;;;;15.60;9.75;;;11.80;79.20;;;;;;4997008;28;20053;-83
2023/12/07 11:26:30;;;;;;;15.23;10.35;;;11.90;79.30;;;;;;4997954;28;20036;-85
2023/12/07 11:28:57;;;;;;;18.92;9.68;;;11.90;79.40;;;;;;4996848;28;20034;-81
2023/12/07 11:31:26;;;;;;;15.80;9.93;;;11.90;79.60;;;;;;4996308;28;20049;-82
2023/12/07 11:33:53;;;;;;;13.40;9.15;;;12.00;78.70;;;;;;4994924;28;20575;-75
2023/12/07 11:36:20;;;;;;;15.90;10.80;;;12.00;78.40;;;;;;4995282;28;20034;-83
2023/12/07 11:39:08;;;;;;;16.58;11.30;;;12.10;78.80;;;;;;4995910;28;20098;-85
2023/12/07 11:41:40;;;;;;;16.13;9.35;;;12.20;79.00;;;;;;4998778;28;20084;-85
2023/12/07 11:44:06;;;;;;;16.90;10.40;;;12.20;77.60;;;;;;4997917;28;20065;-79
2023/12/07 11:46:38;;;;;;;13.52;9.77;;;12.30;77.40;;;;;;4996100;28;20044;-84
2023/12/07 11:49:05;;;;;;;15.15;10.15;;;12.30;78.00;;;;;;4995501;28;20508;-81
2023/12/07 11:51:31;;;;;;;17.00;11.05;;;12.40;77.10;;;;;;4995475;28;20040;-78
2023/12/07 11:53:57;;;;;;;15.82;10.73;;;12.40;77.10;;;;;;4996094;28;20520;-87
2023/12/07 11:56:25;;;;;;;13.15;8.57;;;12.50;77.20;;;;;;4996531;28;20559;-85
2023/12/07 11:58:52;;;;;;;12.75;8.77;;;12.50;76.80;;;;;;5000256;28;20035;-87
2023/12/07 12:01:19;;;;;;;13.70;8.10;;;12.50;75.60;;;;;;4996525;28;20073;-82
2023/12/07 12:03:46;;;;;;;11.68;8.07;;;12.60;76.90;;;;;;4995453;28;20052;-78
2023/12/07 12:06:12;;;;;;;11.85;8.30;;;12.60;76.60;;;;;;4998747;28;20030;-81
2023/12/07 12:08:42;;;;;;;11.60;7.15;;;12.70;76.40;;;;;;4997269;28;20038;-77
2023/12/07 12:11:09;;;;;;;11.27;7.10;;;12.70;75.30;;;;;;4994200;28;20378;-82
2023/12/07 12:13:40;;;;;;;13.65;7.88;;;12.80;75.20;;;;;;4994586;28;20035;-79
2023/12/07 12:16:07;;;;;;;12.13;7.80;;;12.80;75.00;;;;;;4994334;28;20037;-81
2023/12/07 12:18:33;;;;;;;11.07;7.07;;;12.90;75.30;;;;;;4994941;28;20419;-85
2023/12/07 12:21:00;;;;;;;12.30;7.70;;;13.00;74.50;;;;;;4993968;28;20053;-72
2023/12/07 12:23:26;;;;;;;16.38;8.38;;;13.00;74.00;;;;;;4993459;28;20060;-71
2023/12/07 12:25:52;;;;;;;14.38;7.90;;;13.00;73.90;;;;;;4992956;28;20027;-73
2023/12/07 12:28:22;;;;;;;13.45;7.75;;;13.10;73.80;;;;;;4990948;28;20061;-74
2023/12/07 12:30:50;;;;;;;12.27;7.95;;;13.20;74.40;;;;;;4992756;28;20145;-75
2023/12/07 12:33:16;;;;;;;13.75;8.98;;;13.30;74.20;;;;;;4992160;28;20141;-77